Time;durP1;ratioP1;P1;durP2;ratioP2;P2;SDS_P1;SDS_P2;PMS_P1;PMS_P2;Temp;Humidity;BMP_temperature;BMP_pressure;BME280_temperature;BME280_humidity;BME280_pressure;Samples;Min_cycle;Max_cycle;Signal;HPM_P1;HPM_P2
2021/05/31 00:01:53;;;;;;;3.47;2.67;;;;;;;11.78;100.00;100078.59;1734328;81;21452;-68
2021/05/31 00:04:20;;;;;;;4.83;2.50;;;;;;;11.74;100.00;100085.20;1751380;79;21347;-68
2021/05/31 00:07:13;;;;;;;3.43;2.33;;;;;;;11.74;100.00;100085.20;1766185;79;21512;-62
2021/05/31 00:09:41;;;;;;;4.40;2.75;;;;;;;11.71;100.00;100079.89;1788308;78;21481;-67
2021/05/31 00:12:12;;;;;;;4.27;2.77;;;;;;;11.69;100.00;100076.66;1760548;79;20977;-67
2021/05/31 00:14:40;;;;;;;3.83;2.33;;;;;;;11.67;100.00;100077.36;1788819;78;21267;-67
2021/05/31 00:17:06;;;;;;;3.97;2.47;;;;;;;11.64;100.00;100076.44;1734173;81;21833;-67
2021/05/31 00:19:35;;;;;;;4.63;2.70;;;;;;;11.65;100.00;100079.34;1735755;81;21460;-63
2021/05/31 00:22:02;;;;;;;5.37;2.57;;;;;;;11.65;100.00;100080.65;1733875;81;22091;-68
2021/05/31 00:24:28;;;;;;;4.03;2.63;;;;;;;11.65;100.00;100080.65;1733695;81;21497;-62
2021/05/31 00:26:55;;;;;;;5.13;2.73;;;;;;;11.64;100.00;100082.97;1731933;81;21895;-68
2021/05/31 00:29:24;;;;;;;4.33;2.73;;;;;;;11.63;100.00;100082.16;1734605;81;21844;-63
2021/05/31 00:31:55;;;;;;;3.77;2.40;;;;;;;11.62;100.00;100077.12;1786147;78;22777;-68
2021/05/31 00:34:23;;;;;;;4.37;2.67;;;;;;;11.60;100.00;100081.74;1791301;78;21664;-68
2021/05/31 00:36:51;;;;;;;5.33;3.27;;;;;;;11.57;100.00;100081.63;1789590;78;21346;-67
2021/05/31 00:39:21;;;;;;;4.17;3.10;;;;;;;11.57;100.00;100081.63;1807479;78;21522;-68
2021/05/31 00:41:51;;;;;;;4.83;3.10;;;;;;;11.55;100.00;100082.30;1801568;78;22016;-68
2021/05/31 00:44:18;;;;;;;3.40;2.37;;;;;;;11.55;100.00;100082.30;1804141;78;21433;-69
2021/05/31 00:46:47;;;;;;;4.57;2.80;;;;;;;11.58;100.00;100089.75;1801103;78;21447;-62
2021/05/31 00:49:22;;;;;;;4.53;2.70;;;;;;;11.61;100.00;100085.45;1803576;78;21524;-68
2021/05/31 00:51:48;;;;;;;3.20;2.30;;;;;;;11.65;100.00;100091.90;1800901;78;21383;-69
2021/05/31 00:54:15;;;;;;;4.73;3.03;;;;;;;11.65;100.00;100091.90;1802040;78;22021;-68
2021/05/31 00:56:42;;;;;;;5.33;3.27;;;;;;;11.63;100.00;100091.30;1797425;78;21422;-66
2021/05/31 00:59:09;;;;;;;3.87;2.83;;;;;;;11.55;100.00;100085.41;1801791;78;21599;-67
2021/05/31 01:01:36;;;;;;;6.83;3.17;;;;;;;11.58;100.00;100087.64;1787001;78;21789;-68
2021/05/31 01:04:05;;;;;;;4.67;3.07;;;;;;;11.56;100.00;100087.85;1732146;81;21385;-69
2021/05/31 01:06:35;;;;;;;4.90;2.77;;;;;;;11.55;100.00;100086.72;1724886;81;21605;-68
2021/05/31 01:09:25;;;;;;;5.20;2.90;;;;;;;11.55;100.00;100086.72;1745139;80;21528;-68
2021/05/31 01:12:05;;;;;;;3.13;2.47;;;;;;;11.45;100.00;100090.50;1731981;82;21394;-67
2021/05/31 01:14:37;;;;;;;5.03;2.80;;;;;;;11.45;100.00;100090.50;1753549;80;21454;-67
2021/05/31 01:17:21;;;;;;;6.33;3.00;;;;;;;11.41;100.00;100095.00;1756477;80;21506;-66
2021/05/31 01:20:05;;;;;;;5.00;2.80;;;;;;;11.36;100.00;100096.85;1749847;80;21515;-61
2021/05/31 01:22:35;;;;;;;6.13;3.73;;;;;;;11.28;100.00;100089.18;1703280;82;21608;-66
2021/05/31 01:25:35;;;;;;;4.70;3.53;;;;;;;11.29;100.00;100100.42;1735949;82;22066;-66
2021/05/31 01:28:42;;;;;;;7.97;4.20;;;;;;;11.41;100.00;100107.55;1704309;82;22065;-68
2021/05/31 01:31:08;;;;;;;7.30;4.40;;;;;;;11.41;100.00;100107.55;1749298;80;21368;-67
2021/05/31 01:33:35;;;;;;;7.63;4.77;;;;;;;11.50;100.00;100101.66;1764676;80;21478;-69
2021/05/31 01:36:03;;;;;;;8.93;5.67;;;;;;;11.63;100.00;100100.44;1716625;81;21441;-64
2021/05/31 01:38:32;;;;;;;9.63;5.47;;;;;;;11.63;100.00;100100.44;1726595;81;22036;-68
2021/05/31 01:41:01;;;;;;;8.47;5.00;;;;;;;11.67;100.00;100095.64;1738456;81;21295;-62
2021/05/31 01:43:28;;;;;;;10.97;6.07;;;;;;;11.75;100.00;100101.20;1740958;81;21524;-68
2021/05/31 01:45:55;;;;;;;9.97;6.60;;;;;;;11.75;100.00;100101.20;1755459;80;21429;-68
2021/05/31 01:48:22;;;;;;;8.37;6.37;;;;;;;11.87;100.00;100113.52;1753225;80;21454;-67
2021/05/31 01:50:49;;;;;;;10.37;7.00;;;;;;;11.87;100.00;100113.52;1754582;80;21396;-62
2021/05/31 01:53:15;;;;;;;10.30;7.30;;;;;;;11.96;100.00;100117.27;1752524;80;22374;-68
2021/05/31 01:55:43;;;;;;;11.83;7.87;;;;;;;12.14;100.00;100119.65;1755378;80;21606;-68
2021/05/31 01:58:09;;;;;;;10.93;7.67;;;;;;;12.14;100.00;100119.65;1754423;80;22004;-68
2021/05/31 02:00:36;;;;;;;8.27;6.50;;;;;;;12.25;100.00;100120.09;1724547;81;21757;-62
2021/05/31 02:03:03;;;;;;;6.13;4.70;;;;;;;12.35;100.00;100119.19;1727720;81;21753;-65
2021/05/31 02:05:30;;;;;;;20.87;5.60;;;;;;;12.45;100.00;100126.66;1723386;81;23228;-68
2021/05/31 02:07:57;;;;;;;5.63;4.30;;;;;;;12.52;100.00;100126.17;1725038;81;21658;-68
2021/05/31 02:10:23;;;;;;;4.87;3.67;;;;;;;12.59;100.00;100128.30;1723422;81;21653;-66
2021/05/31 02:12:56;;;;;;;7.10;3.90;;;;;;;12.66;100.00;100126.00;1734936;81;22413;-67
2021/05/31 02:15:31;;;;;;;4.43;3.30;;;;;;;12.74;100.00;100129.43;1741612;81;21656;-67
2021/05/31 02:18:25;;;;;;;5.10;3.20;;;;;;;12.83;100.00;100130.83;1719608;81;21130;-67
2021/05/31 02:20:57;;;;;;;6.73;3.70;;;;;;;12.91;100.00;100131.42;1717159;81;21661;-67
2021/05/31 02:23:23;;;;;;;4.30;3.50;;;;;;;13.01;100.00;100136.78;1723202;81;21028;-66
2021/05/31 02:25:50;;;;;;;4.60;3.17;;;;;;;13.18;100.00;100132.73;1725259;82;20950;-65
2021/05/31 02:28:16;;;;;;;5.23;3.60;;;;;;;13.18;100.00;100132.73;1734743;82;21086;-67
2021/05/31 02:30:43;;;;;;;6.20;4.17;;;;;;;13.23;100.00;100134.76;1735402;82;21003;-66
2021/05/31 02:33:10;;;;;;;5.30;3.90;;;;;;;13.30;100.00;100136.90;1731334;82;20927;-66
2021/05/31 02:35:39;;;;;;;5.03;3.73;;;;;;;13.35;100.00;100138.39;1733204;81;21048;-66
2021/05/31 02:38:07;;;;;;;5.20;3.70;;;;;;;13.41;100.00;100136.76;1756222;80;20991;-68
2021/05/31 02:40:35;;;;;;;6.20;3.70;;;;;;;13.50;100.00;100130.31;1766473;80;21115;-68
2021/05/31 02:43:04;;;;;;;5.97;3.77;;;;;;;13.60;100.00;100128.08;1723532;81;20973;-62
2021/05/31 02:45:33;;;;;;;5.90;3.47;;;;;;;13.73;100.00;100128.02;1732606;81;28821;-66
2021/05/31 02:47:59;;;;;;;5.27;4.17;;;;;;;13.88;100.00;100122.53;1735239;82;21368;-65
2021/05/31 02:50:27;;;;;;;6.23;4.50;;;;;;;14.04;100.00;100121.25;1733331;82;21112;-66
2021/05/31 02:52:55;;;;;;;6.27;4.20;;;;;;;14.23;100.00;100120.86;1731794;82;21097;-62
2021/05/31 02:55:25;;;;;;;7.17;4.00;;;;;;;14.48;100.00;100125.66;1730785;82;21077;-66
2021/05/31 02:57:51;;;;;;;7.53;4.30;;;;;;;14.75;100.00;100122.37;1733886;80;21584;-73
2021/05/31 03:00:20;;;;;;;5.83;4.07;;;;;;;15.04;100.00;100124.07;1734313;80;21023;-65
2021/05/31 03:02:48;;;;;;;8.10;4.93;;;;;;;15.26;100.00;100125.25;1741191;80;21314;-69
2021/05/31 03:05:29;;;;;;;6.87;5.47;;;;;;;15.42;100.00;100122.59;1716188;82;22114;-70
2021/05/31 03:07:59;;;;;;;7.62;5.60;;;;;;;15.52;100.00;100123.39;1750108;80;21565;-68
2021/05/31 03:10:28;;;;;;;7.67;5.87;;;;;;;15.58;100.00;100125.16;1742766;80;21646;-71
2021/05/31 03:12:56;;;;;;;8.17;6.77;;;;;;;15.59;100.00;100118.87;1746488;80;21961;-69
2021/05/31 03:15:23;;;;;;;6.60;5.00;;;;;;;15.61;100.00;100126.03;1749004;80;20927;-69
2021/05/31 03:17:50;;;;;;;6.60;5.37;;;;;;;15.61;100.00;100127.34;1737546;80;21073;-63
2021/05/31 03:20:20;;;;;;;6.30;4.30;;;;;;;15.57;100.00;100124.35;1740502;80;21067;-69
2021/05/31 03:22:46;;;;;;;7.67;4.30;;;;;;;15.56;100.00;100127.19;1747560;80;21012;-73
2021/05/31 03:25:13;;;;;;;7.70;4.90;;;;;;;15.52;100.00;100126.02;1746944;80;21015;-74
2021/05/31 03:27:40;;;;;;;6.10;4.17;;;;;;;15.46;100.00;100128.22;1739736;80;20980;-73
2021/05/31 03:30:09;;;;;;;6.23;4.20;;;;;;;15.39;100.00;100130.91;1742110;80;21087;-62
2021/05/31 03:32:37;;;;;;;5.37;4.03;;;;;;;15.32;100.00;100125.71;1740375;80;21068;-73
2021/05/31 03:35:05;;;;;;;6.70;4.63;;;;;;;15.28;100.00;100125.85;1739528;80;20940;-72
2021/05/31 03:37:34;;;;;;;6.53;4.77;;;;;;;15.25;100.00;100129.42;1738196;80;20968;-71
2021/05/31 03:40:00;;;;;;;5.80;4.70;;;;;;;15.22;100.00;100128.02;1739443;80;20969;-70
2021/05/31 03:42:27;;;;;;;5.43;4.80;;;;;;;15.21;100.00;100124.31;1737930;80;21128;-70
2021/05/31 03:44:54;;;;;;;6.27;4.77;;;;;;;15.20;100.00;100121.40;1739908;80;21091;-71
2021/05/31 03:47:20;;;;;;;6.60;4.33;;;;;;;15.20;100.00;100120.89;1747028;80;20961;-74
2021/05/31 03:49:48;;;;;;;4.93;4.00;;;;;;;15.21;100.00;100120.38;1739851;80;20968;-69
2021/05/31 03:52:17;;;;;;;6.83;4.47;;;;;;;15.18;100.00;100111.09;1740932;80;21486;-63
2021/05/31 03:54:43;;;;;;;7.23;5.70;;;;;;;15.18;100.00;100110.30;1740471;80;21137;-69
2021/05/31 03:57:10;;;;;;;5.73;4.67;;;;;;;15.19;100.00;100108.78;1737568;80;20964;-70
2021/05/31 03:59:36;;;;;;;5.97;4.87;;;;;;;15.27;100.00;100110.33;1740889;80;20928;-72
2021/05/31 04:02:04;;;;;;;7.20;4.23;;;;;;;15.37;100.00;100111.13;1749537;80;20936;-63
2021/05/31 04:04:45;;;;;;;6.37;4.40;;;;;;;15.48;100.00;100111.72;1749675;80;20964;-67
2021/05/31 04:12:42;;;;;;;6.83;3.77;;;;;;;15.89;100.00;100101.87;1749946;80;20974;-75
2021/05/31 04:15:11;;;;;;;5.27;3.93;;;;;;;16.04;100.00;100098.34;1733749;80;21574;-73
2021/05/31 04:17:37;;;;;;;8.00;4.13;;;;;;;16.18;100.00;100108.69;1747578;80;21053;-60
2021/05/31 04:20:06;;;;;;;13.13;7.87;;;;;;;16.29;100.00;100102.16;1760565;80;21903;-66
2021/05/31 04:22:33;;;;;;;6.87;5.20;;;;;;;16.41;100.00;100105.33;1753846;80;21580;-70
2021/05/31 04:24:59;;;;;;;7.17;4.30;;;;;;;16.48;100.00;100103.41;1759537;80;21588;-67
2021/05/31 04:27:26;;;;;;;5.87;4.93;;;;;;;16.52;100.00;100104.05;1752183;80;21022;-70
2021/05/31 04:29:53;;;;;;;7.83;5.23;;;;;;;16.52;100.00;100108.51;1754620;80;20940;-61
2021/05/31 04:32:20;;;;;;;6.97;5.73;;;;;;;16.56;100.00;100101.77;1748826;80;21498;-68
2021/05/31 04:34:46;;;;;;;10.07;4.57;;;;;;;16.61;100.00;100102.39;1748315;80;21028;-67
2021/05/31 04:37:13;;;;;;;7.23;5.27;;;;;;;16.65;100.00;100104.34;1749073;80;21102;-69
2021/05/31 04:39:40;;;;;;;7.77;4.53;;;;;;;16.73;100.00;100100.09;1749612;80;20999;-66
2021/05/31 04:42:08;;;;;;;6.53;4.37;;;;;;;16.81;100.00;100102.10;1749630;80;21602;-68
2021/05/31 04:44:35;;;;;;;6.47;3.10;;;;;;;16.90;100.00;100106.82;1747446;80;21421;-72
2021/05/31 04:47:04;;;;;;;6.50;3.57;;;;;;;17.06;100.00;100106.64;1751100;80;20992;-72
2021/05/31 04:49:32;;;;;;;4.80;2.93;;;;;;;17.19;100.00;100108.23;1747633;80;20947;-72
2021/05/31 04:51:59;;;;;;;3.83;2.57;;;;;;;17.32;100.00;100110.64;1751822;80;20988;-62
2021/05/31 04:54:26;;;;;;;4.83;2.57;;;;;;;17.47;100.00;100112.81;1748792;80;21905;-72
2021/05/31 04:56:53;;;;;;;3.50;2.37;;;;;;;17.61;100.00;100117.29;1751903;80;21685;-74
2021/05/31 04:59:20;;;;;;;4.53;2.47;;;;;;;17.71;100.00;100116.98;1749769;80;21000;-72
2021/05/31 05:01:47;;;;;;;3.10;2.20;;;;;;;17.77;100.00;100117.94;1747849;80;21033;-70
2021/05/31 05:04:14;;;;;;;5.40;2.87;;;;;;;17.74;100.00;100125.75;1738985;80;21608;-66
2021/05/31 05:06:41;;;;;;;4.73;2.73;;;;;;;17.67;100.00;100120.33;1738513;80;21334;-73
2021/05/31 05:09:07;;;;;;;3.73;2.53;;;;;;;17.64;100.00;100122.10;1739670;80;21088;-73
2021/05/31 05:11:34;;;;;;;5.07;2.43;;;;;;;17.63;100.00;100119.19;1738010;80;20956;-75
2021/05/31 05:14:01;;;;;;;3.83;2.03;;;;;;;17.69;100.00;100119.07;1741668;80;21011;-73
2021/05/31 05:16:28;;;;;;;5.20;2.67;;;;;;;17.80;100.00;100116.64;1738659;80;21432;-70
2021/05/31 05:18:55;;;;;;;3.07;2.03;;;;;;;17.90;100.00;100116.33;1739213;80;21508;-72
2021/05/31 05:21:22;;;;;;;3.50;2.43;;;;;;;17.99;100.00;100123.34;1738365;80;21589;-72
2021/05/31 05:23:49;;;;;;;4.90;2.70;;;;;;;18.00;100.00;100124.97;1736524;80;21028;-70
2021/05/31 05:26:18;;;;;;;4.20;2.80;;;;;;;17.99;100.00;100124.66;1738947;80;20909;-72
2021/05/31 05:28:47;;;;;;;3.77;2.33;;;;;;;17.97;100.00;100122.80;1739583;80;20976;-69
2021/05/31 05:31:15;;;;;;;3.53;2.17;;;;;;;17.90;100.00;100124.77;1740453;80;20980;-73
2021/05/31 05:33:45;;;;;;;6.30;2.60;;;;;;;17.83;100.00;100125.41;1739769;80;21149;-72
2021/05/31 05:39:17;;;;;;;9.70;2.97;;;;;;;17.80;100.00;100133.27;1739687;80;20920;-70
2021/05/31 05:41:51;;;;;;;5.03;2.63;;;;;;;17.77;100.00;100125.02;1734828;80;21695;-69
2021/05/31 05:47:32;;;;;;;5.13;2.50;;;;;;;17.74;100.00;100129.70;1735406;80;21457;-72
2021/05/31 05:49:21;;;;;;;6.53;2.87;;;;;;;17.80;100.00;100126.67;1739417;80;21208;-73
2021/05/31 05:51:47;;;;;;;6.70;2.50;;;;;;;17.92;100.00;100120.87;1740697;80;20929;-71
2021/05/31 05:54:14;;;;;;;4.13;2.40;;;;;;;18.01;100.00;100127.88;1739208;80;20925;-69
2021/05/31 05:56:40;;;;;;;5.27;2.37;;;;;;;18.07;100.00;100123.00;1738429;80;21910;-73
2021/05/31 05:59:07;;;;;;;4.53;2.20;;;;;;;18.22;100.00;100123.77;1739843;80;21048;-73
2021/05/31 06:01:34;;;;;;;3.50;2.30;;;;;;;18.50;100.00;100120.84;1736907;80;21557;-77
2021/05/31 06:04:01;;;;;;;8.03;2.77;;;;;;;18.77;100.00;100122.36;1740516;80;21562;-74
2021/05/31 06:06:27;;;;;;;4.13;2.27;;;;;;;18.88;100.00;100124.13;1738132;80;22015;-75
2021/05/31 06:08:54;;;;;;;5.23;2.60;;;;;;;19.06;100.00;100126.52;1750676;80;21039;-75
2021/05/31 06:11:21;;;;;;;13.07;2.83;;;;;;;19.32;100.00;100118.92;1742701;80;21081;-75
2021/05/31 06:13:51;;;;;;;3.13;2.03;;;;;;;19.53;100.00;100111.55;1750398;80;21526;-71
2021/05/31 06:16:17;;;;;;;4.30;2.10;;;;;;;19.71;100.00;100113.66;1745063;80;20947;-62
2021/05/31 06:18:43;;;;;;;7.20;3.23;;;;;;;19.73;100.00;100117.63;1748299;80;21027;-73
2021/05/31 06:21:09;;;;;;;5.17;2.43;;;;;;;19.79;100.00;100121.16;1745507;80;21929;-75
2021/05/31 06:23:36;;;;;;;5.23;2.70;;;;;;;19.87;100.00;100129.97;1745140;80;21101;-72
2021/05/31 06:26:03;;;;;;;4.27;2.00;;;;;;;19.86;100.00;100128.37;1746775;80;21709;-70
2021/05/31 06:28:30;;;;;;;4.33;2.33;;;;;;;19.96;100.00;100127.67;1749680;80;21864;-71
2021/05/31 06:30:57;;;;;;;3.30;2.43;;;;;;;20.11;100.00;100128.63;1739100;80;21132;-70
2021/05/31 06:33:24;;;;;;;4.10;2.07;;;;;;;20.34;100.00;100122.77;1741068;80;21035;-68
2021/05/31 06:35:52;;;;;;;4.30;2.07;;;;;;;20.58;100.00;100122.77;1740328;80;23090;-64
2021/05/31 06:38:19;;;;;;;4.00;2.17;;;;;;;20.76;100.00;100120.77;1735486;80;21477;-64
2021/05/31 06:40:48;;;;;;;3.97;2.10;;;;;;;20.86;100.00;100122.97;1737807;80;20917;-71
2021/05/31 06:43:15;;;;;;;4.60;2.07;;;;;;;20.84;100.00;100124.30;1743528;80;21083;-69
2021/05/31 06:45:42;;;;;;;3.90;2.10;;;;;;;20.85;100.00;100125.89;1743333;80;21135;-70
2021/05/31 06:48:12;;;;;;;2.90;1.77;;;;;;;20.95;100.00;100125.15;1736630;80;21049;-71
2021/05/31 06:50:39;;;;;;;2.75;1.90;;;;;;;21.13;100.00;100116.26;1746815;80;21160;-67
2021/05/31 06:53:05;;;;;;;3.40;2.13;;;;;;;21.32;100.00;100118.48;1746789;80;20972;-73
2021/05/31 06:55:35;;;;;;;2.87;1.70;;;;;;;21.48;100.00;100111.43;1742908;80;21625;-72
2021/05/31 06:58:02;;;;;;;3.50;1.93;;;;;;;21.65;100.00;100113.91;1740275;80;20905;-68
2021/05/31 07:00:28;;;;;;;2.70;1.43;;;;;;;21.86;100.00;100108.41;1750526;80;21212;-72
2021/05/31 07:02:55;;;;;;;4.97;2.00;;;;;;;22.16;100.00;100104.77;1759142;80;21589;-70
2021/05/31 07:05:22;;;;;;;3.33;1.87;;;;;;;22.36;100.00;100102.16;1759683;80;20912;-71
2021/05/31 07:07:49;;;;;;;3.07;1.80;;;;;;;22.51;100.00;100099.50;1759970;80;20980;-68
2021/05/31 07:10:17;;;;;;;1.93;1.47;;;;;;;22.71;100.00;100098.69;1757766;80;21545;-70
2021/05/31 07:12:46;;;;;;;2.60;1.57;;;;;;;22.98;100.00;100096.30;1755784;80;21066;-65
2021/05/31 07:15:14;;;;;;;2.80;1.60;;;;;;;23.30;100.00;100102.07;1767152;80;21582;-72
2021/05/31 07:17:41;;;;;;;1.93;1.50;;;;;;;23.73;100.00;100097.13;1757118;80;21044;-71
2021/05/31 07:20:10;;;;;;;1.90;1.53;;;;;;;24.13;100.00;100097.16;1759650;80;20977;-72
2021/05/31 07:22:38;;;;;;;2.53;1.73;;;;;;;24.42;100.00;100101.23;1754918;80;21424;-64
2021/05/31 07:25:06;;;;;;;2.20;1.73;;;;;;;24.60;100.00;100103.77;1762296;80;21132;-70
2021/05/31 07:27:34;;;;;;;2.52;1.60;;;;;;;24.66;100.00;100098.63;1755434;80;20979;-70
2021/05/31 07:30:01;;;;;;;3.43;1.63;;;;;;;24.93;100.00;100101.59;1757329;80;21624;-69
2021/05/31 07:32:27;;;;;;;4.42;1.50;;;;;;;25.19;97.95;100104.00;1753093;80;21391;-69
2021/05/31 07:34:55;;;;;;;2.35;1.77;;;;;;;25.41;100.00;100100.82;1748296;80;20970;-62
2021/05/31 07:37:22;;;;;;;1.67;1.25;;;;;;;25.94;100.00;100098.81;1751457;80;21412;-69
2021/05/31 07:39:48;;;;;;;2.85;1.70;;;;;;;26.52;92.53;100099.05;1749647;80;20964;-67
2021/05/31 07:42:15;;;;;;;2.00;1.50;;;;;;;26.85;81.41;100103.00;1747500;80;20960;-68
2021/05/31 07:44:41;;;;;;;7.25;2.00;;;;;;;26.96;77.43;100095.05;1751567;80;22429;-70
2021/05/31 07:47:08;;;;;;;4.10;1.87;;;;;;;27.14;71.79;100096.08;1752899;80;20995;-70
2021/05/31 07:49:34;;;;;;;2.87;1.62;;;;;;;27.13;70.23;100097.97;1750032;80;22145;-67
2021/05/31 07:52:19;;;;;;;2.00;1.60;;;;;;;27.04;67.97;100102.92;1751525;80;20908;-69
2021/05/31 07:54:35;;;;;;;2.85;1.70;;;;;;;26.88;68.85;100103.20;1752962;80;20948;-71
2021/05/31 07:57:03;;;;;;;3.33;1.75;;;;;;;27.12;67.03;100095.05;1754071;80;21019;-65
2021/05/31 07:59:30;;;;;;;1.70;1.50;;;;;;;27.67;65.97;100094.75;1753068;80;22043;-68
2021/05/31 08:01:57;;;;;;;3.92;1.75;;;;;;;28.34;60.41;100095.63;1754412;80;22124;-68
2021/05/31 08:04:24;;;;;;;2.05;1.47;;;;;;;28.89;52.26;100096.42;1748143;80;20967;-69
2021/05/31 08:06:50;;;;;;;4.00;1.40;;;;;;;29.23;50.17;100093.89;1748323;80;20976;-61
2021/05/31 08:09:17;;;;;;;2.33;1.35;;;;;;;29.63;48.98;100096.54;1749130;80;20967;-68
2021/05/31 08:11:43;;;;;;;2.08;1.22;;;;;;;30.03;47.24;100099.06;1749389;80;21909;-67
2021/05/31 08:14:10;;;;;;;2.02;1.37;;;;;;;30.62;43.49;100093.95;1749510;80;21719;-68
2021/05/31 08:16:36;;;;;;;2.15;1.30;;;;;;;30.99;41.89;100098.36;1718542;81;20968;-66
2021/05/31 08:19:03;;;;;;;1.72;1.17;;;;;;;31.01;40.41;100102.29;1751197;80;21456;-67
2021/05/31 08:21:30;;;;;;;1.65;1.27;;;;;;;30.72;40.76;100100.33;1746759;80;21083;-67
2021/05/31 08:23:57;;;;;;;2.15;1.35;;;;;;;30.36;40.69;100102.08;1750807;80;21503;-68
2021/05/31 08:26:24;;;;;;;2.27;1.45;;;;;;;30.12;41.04;100099.05;1748463;80;21099;-67
2021/05/31 08:28:50;;;;;;;4.15;1.70;;;;;;;29.64;43.57;100102.14;1749700;80;20972;-67
2021/05/31 08:31:18;;;;;;;3.00;1.72;;;;;;;29.40;44.90;100101.21;1712035;81;21003;-64
2021/05/31 08:33:44;;;;;;;2.30;1.52;;;;;;;29.18;45.05;100102.09;1749560;80;21542;-71
2021/05/31 08:36:11;;;;;;;2.70;1.55;;;;;;;29.05;45.19;100093.59;1749644;80;21039;-69
2021/05/31 08:38:38;;;;;;;4.53;1.52;;;;;;;28.89;47.22;100092.40;1747385;80;21564;-70
2021/05/31 08:41:04;;;;;;;5.72;2.35;;;;;;;28.56;49.92;100100.74;1748880;80;21986;-69
2021/05/31 08:43:31;;;;;;;2.80;1.42;;;;;;;28.51;51.38;100108.92;1747619;80;20996;-72
2021/05/31 08:45:57;;;;;;;2.00;1.40;;;;;;;28.47;48.74;100103.94;1747948;80;21081;-70
2021/05/31 08:48:25;;;;;;;3.33;1.47;;;;;;;28.54;49.82;100095.70;1753400;80;20964;-73
2021/05/31 08:50:51;;;;;;;2.05;1.40;;;;;;;28.59;49.55;100100.14;1747263;80;22063;-69
2021/05/31 08:53:19;;;;;;;2.50;1.62;;;;;;;29.01;49.39;100096.66;1749037;80;21019;-71
2021/05/31 08:55:47;;;;;;;2.37;1.75;;;;;;;29.45;47.59;100098.92;1737098;80;21403;-70
2021/05/31 08:58:14;;;;;;;2.72;1.62;;;;;;;29.63;45.30;100097.09;1752241;80;20951;-71
2021/05/31 09:00:40;;;;;;;2.92;1.60;;;;;;;29.51;43.78;100096.31;1752061;80;21575;-70
2021/05/31 09:03:09;;;;;;;9.65;1.75;;;;;;;29.27;44.21;100101.55;1756673;80;22472;-70
2021/05/31 09:05:40;;;;;;;2.62;1.40;;;;;;;29.17;50.28;100105.89;1742078;80;20906;-70
2021/05/31 09:08:11;;;;;;;1.75;1.10;;;;;;;29.40;46.94;100105.23;1740385;80;24702;-71
2021/05/31 09:10:44;;;;;;;5.65;1.80;;;;;;;29.69;44.18;100108.70;1737970;80;21045;-65
2021/05/31 09:13:31;;;;;;;2.22;1.50;;;;;;;30.09;44.01;100101.06;1743741;80;21387;-70
2021/05/31 09:16:18;;;;;;;2.37;1.40;;;;;;;30.42;43.22;100099.99;1757187;80;21105;-71
2021/05/31 09:19:06;;;;;;;1.80;1.40;;;;;;;30.79;40.76;100097.16;1738792;80;21024;-63
2021/05/31 09:21:34;;;;;;;1.85;1.20;;;;;;;30.97;39.19;100091.16;1753326;80;21413;-69
2021/05/31 09:24:06;;;;;;;2.17;1.70;;;;;;;31.07;39.30;100093.48;1742556;80;21617;-70
2021/05/31 09:26:51;;;;;;;2.20;1.35;;;;;;;31.30;38.08;100089.17;1751289;80;21000;-69
2021/05/31 09:29:19;;;;;;;2.20;1.30;;;;;;;31.52;37.68;100086.21;1741589;80;21894;-64
2021/05/31 09:32:03;;;;;;;2.35;1.40;;;;;;;31.65;37.12;100089.19;1739200;80;21070;-70
2021/05/31 09:34:29;;;;;;;2.75;1.50;;;;;;;31.43;36.22;100083.55;1738587;80;21499;-70
2021/05/31 09:37:00;;;;;;;3.58;1.75;;;;;;;30.66;38.04;100084.13;1739583;80;21038;-71
2021/05/31 09:39:36;;;;;;;2.58;1.70;;;;;;;30.52;38.62;100084.87;1736297;80;20909;-72
2021/05/31 09:42:14;;;;;;;2.72;1.70;;;;;;;30.66;39.01;100080.08;1740549;80;21166;-74
2021/05/31 09:44:43;;;;;;;2.10;1.60;;;;;;;30.65;38.88;100087.11;1712452;81;20993;-72
2021/05/31 09:47:10;;;;;;;3.05;1.52;;;;;;;30.47;38.23;100079.11;1712132;81;20897;-70
2021/05/31 09:49:37;;;;;;;4.10;1.75;;;;;;;30.46;38.32;100071.37;1713335;81;21101;-70
2021/05/31 09:52:07;;;;;;;7.40;2.98;;;;;;;30.41;39.03;100078.25;1713200;81;21093;-71
2021/05/31 09:54:46;;;;;;;2.62;1.40;;;;;;;30.49;38.49;100082.81;1741568;80;21125;-70
2021/05/31 09:57:22;;;;;;;2.00;1.40;;;;;;;30.78;37.61;100075.40;1740453;80;20956;-72
2021/05/31 09:59:55;;;;;;;1.92;1.50;;;;;;;31.04;37.41;100070.46;1703477;82;21028;-69
2021/05/31 10:02:51;;;;;;;2.77;1.47;;;;;;;30.90;38.02;100071.46;1739628;80;21458;-73
2021/05/31 10:05:26;;;;;;;3.70;2.00;;;;;;;30.90;38.13;100064.73;1739961;80;21079;-71
2021/05/31 10:07:56;;;;;;;2.08;1.40;;;;;;;30.81;38.14;100066.69;1744178;80;22440;-72
2021/05/31 10:10:19;;;;;;;6.33;1.70;;;;;;;30.46;38.65;100068.13;1748581;80;21040;-73
2021/05/31 10:12:45;;;;;;;2.15;1.50;;;;;;;30.46;39.75;100066.78;1740263;80;20996;-64
2021/05/31 10:15:13;;;;;;;2.72;1.55;;;;;;;30.75;38.56;100059.33;1743556;80;21031;-68
2021/05/31 10:17:39;;;;;;;2.05;1.37;;;;;;;30.76;39.88;100057.43;1743164;80;21566;-71
2021/05/31 10:20:09;;;;;;;2.20;1.30;;;;;;;30.73;37.36;100058.85;1758228;80;21023;-72
2021/05/31 10:22:36;;;;;;;2.45;1.60;;;;;;;30.76;38.59;100065.50;1752346;80;21534;-73
2021/05/31 10:25:07;;;;;;;2.37;1.42;;;;;;;31.01;38.80;100059.22;1750659;80;21115;-65
2021/05/31 10:27:34;;;;;;;1.65;1.42;;;;;;;31.02;37.67;100063.48;1749127;80;21316;-74
2021/05/31 10:30:06;;;;;;;2.22;1.60;;;;;;;30.54;37.11;100067.30;1749079;80;21082;-74
2021/05/31 10:32:33;;;;;;;2.77;1.70;;;;;;;30.06;38.89;100064.84;1718019;80;21700;-71
2021/05/31 10:34:59;;;;;;;1.87;1.45;;;;;;;29.96;39.17;100068.63;1747856;80;21004;-65
2021/05/31 10:37:30;;;;;;;1.60;1.20;;;;;;;29.51;39.06;100068.92;1750783;80;21384;-61
2021/05/31 10:40:11;;;;;;;2.30;1.50;;;;;;;28.82;41.15;100068.69;1753278;80;21031;-70
2021/05/31 10:42:40;;;;;;;;;;;;;;;28.33;43.29;100076.60;1756289;80;21122;-69
2021/05/31 10:45:26;;;;;;;2.80;1.70;;;;;;;28.25;45.71;100067.17;1747669;80;21085;-66
2021/05/31 10:48:10;;;;;;;1.85;1.50;;;;;;;28.55;45.28;100061.63;1754597;80;21085;-70
2021/05/31 10:50:52;;;;;;;2.83;1.52;;;;;;;29.02;43.83;100058.79;1750121;80;20944;-70
2021/05/31 10:53:27;;;;;;;3.60;1.47;;;;;;;29.38;42.16;100056.97;1750714;80;21582;-70
2021/05/31 10:56:04;;;;;;;1.95;1.37;;;;;;;29.62;41.92;100053.30;1748513;80;21540;-71
2021/05/31 10:58:48;;;;;;;1.50;1.25;;;;;;;30.01;40.62;100053.70;1751191;80;21075;-76
2021/05/31 11:01:18;;;;;;;3.80;1.65;;;;;;;30.28;38.96;100055.27;1753962;80;20875;-75
2021/05/31 11:04:01;;;;;;;4.08;1.50;;;;;;;30.12;38.44;100051.48;1752797;80;20999;-73
2021/05/31 11:06:44;;;;;;;2.37;1.42;;;;;;;29.28;38.77;100052.67;1752385;80;21262;-75
2021/05/31 11:09:20;;;;;;;3.65;1.67;;;;;;;29.28;38.77;100052.67;1745024;80;21003;-74
2021/05/31 11:11:52;;;;;;;2.00;1.47;;;;;;;28.69;40.29;100060.99;1750862;80;20999;-74
2021/05/31 11:14:39;;;;;;;2.00;1.40;;;;;;;28.20;42.05;100064.08;1746494;80;20924;-75
2021/05/31 11:17:15;;;;;;;1.95;1.15;;;;;;;27.79;43.78;100062.34;1738116;80;21098;-62
2021/05/31 11:19:45;;;;;;;2.70;1.50;;;;;;;27.37;45.43;100066.97;1754487;80;21103;-74
2021/05/31 11:22:19;;;;;;;3.90;1.55;;;;;;;27.06;48.83;100057.95;1749401;80;21528;-76
2021/05/31 11:25:06;;;;;;;3.17;1.77;;;;;;;26.83;52.30;100061.86;1718835;80;21090;-74
2021/05/31 11:27:40;;;;;;;2.20;1.35;;;;;;;26.63;55.88;100058.20;1743602;80;21618;-72
2021/05/31 11:30:16;;;;;;;1.50;1.30;;;;;;;26.57;56.98;100060.19;1752055;81;21046;-71
2021/05/31 11:32:43;;;;;;;2.60;1.37;;;;;;;26.69;57.80;100046.33;1746209;80;20972;-62
2021/05/31 11:37:57;;;;;;;2.52;1.50;;;;;;;27.05;54.49;100042.45;1797599;77;21190;-76
2021/05/31 11:40:36;;;;;;;2.90;1.50;;;;;;;27.15;57.80;100048.16;1743863;81;21039;-72
2021/05/31 11:43:05;;;;;;;5.37;1.90;;;;;;;27.32;55.50;100047.56;1753628;79;20914;-75
2021/05/31 11:45:37;;;;;;;2.35;1.40;;;;;;;27.71;54.95;100038.94;1786851;78;20957;-73